Time;durP1;ratioP1;P1;durP2;ratioP2;P2;SDS_P1;SDS_P2;PMS_P1;PMS_P2;Temp;Humidity;BMP_temperature;BMP_pressure;BME280_temperature;BME280_humidity;BME280_pressure;Samples;Min_cycle;Max_cycle;Signal;HPM_P1;HPM_P2
2021/07/07 00:00:27;;;;;;;6.15;4.38;;;;;;;21.39;52.33;93896.59;5052232;28;20021;-72
2021/07/07 00:02:52;;;;;;;7.97;4.70;;;;;;;21.34;52.75;93907.03;5059561;28;20028;-72
2021/07/07 00:05:19;;;;;;;9.57;4.75;;;;;;;21.26;52.28;93889.19;5069323;28;20500;-72
2021/07/07 00:07:45;;;;;;;9.23;4.75;;;;;;;21.23;52.86;93896.16;5070410;28;20043;-72
2021/07/07 00:10:14;;;;;;;6.80;4.68;;;;;;;21.15;53.11;93889.13;5068203;28;20025;-73
2021/07/07 00:12:40;;;;;;;8.25;4.82;;;;;;;21.12;53.63;93887.16;5063218;28;20032;-72
2021/07/07 00:15:14;;;;;;;5.70;4.40;;;;;;;21.07;54.30;93890.25;5055801;28;20537;-72
2021/07/07 00:17:40;;;;;;;7.30;5.18;;;;;;;21.01;54.25;93896.03;5057934;28;20397;-72
2021/07/07 00:20:07;;;;;;;5.60;4.45;;;;;;;20.92;54.17;93892.84;5051787;28;20099;-72
2021/07/07 00:22:33;;;;;;;7.47;5.15;;;;;;;20.88;54.30;93900.19;5050784;28;20115;-72
2021/07/07 00:24:58;;;;;;;6.63;4.60;;;;;;;20.86;54.59;93894.38;5066430;28;20111;-72
2021/07/07 00:27:24;;;;;;;6.18;4.15;;;;;;;20.79;54.65;93889.69;5065946;28;20474;-72
2021/07/07 00:29:51;;;;;;;7.03;4.82;;;;;;;20.73;54.52;93904.75;5069421;28;20111;-72
2021/07/07 00:32:18;;;;;;;7.55;4.40;;;;;;;20.70;54.90;93896.59;5052974;28;20023;-72
2021/07/07 00:34:46;;;;;;;6.88;4.50;;;;;;;20.67;54.68;93892.69;5070219;28;20078;-72
2021/07/07 00:37:12;;;;;;;8.55;4.85;;;;;;;20.66;54.98;93896.56;5069932;28;20029;-72
2021/07/07 00:39:39;;;;;;;8.65;4.90;;;;;;;20.61;55.52;93892.25;5070030;28;20020;-72
2021/07/07 00:42:04;;;;;;;9.10;4.72;;;;;;;20.61;55.47;93894.22;5049782;28;20040;-74
2021/07/07 00:44:30;;;;;;;5.78;4.22;;;;;;;20.58;55.44;93890.31;5050283;28;20515;-72
2021/07/07 00:46:55;;;;;;;7.97;4.90;;;;;;;20.53;56.21;93890.63;5065866;28;20029;-72
2021/07/07 00:49:21;;;;;;;6.13;4.65;;;;;;;20.48;55.88;93888.28;5069592;28;20055;-72
2021/07/07 00:51:47;;;;;;;7.38;4.65;;;;;;;20.46;55.69;93889.81;5050041;28;20021;-72
2021/07/07 00:54:15;;;;;;;7.57;5.25;;;;;;;20.42;55.92;93893.25;5050619;28;20032;-72
2021/07/07 00:56:41;;;;;;;8.55;4.72;;;;;;;20.37;55.87;93893.63;5061367;28;20112;-72
2021/07/07 00:59:08;;;;;;;7.15;5.07;;;;;;;20.34;56.33;93890.88;5051675;28;21480;-72
2021/07/07 01:01:34;;;;;;;6.93;5.50;;;;;;;20.33;55.88;93892.00;5069590;28;20024;-72
2021/07/07 01:03:59;;;;;;;6.93;4.90;;;;;;;20.34;55.67;93901.69;5069815;28;20543;-72
2021/07/07 01:06:24;;;;;;;9.52;5.45;;;;;;;20.36;55.64;93883.16;5066731;28;20074;-72
2021/07/07 01:08:50;;;;;;;7.13;4.57;;;;;;;20.32;56.50;93898.59;5055950;28;20060;-73
2021/07/07 01:11:16;;;;;;;10.20;4.95;;;;;;;20.31;56.32;93900.50;5049241;28;20029;-73
2021/07/07 01:13:41;;;;;;;7.32;4.75;;;;;;;20.31;56.17;93902.44;5053767;28;20107;-72
2021/07/07 01:16:07;;;;;;;8.60;4.68;;;;;;;20.28;56.23;93905.91;5056357;28;20028;-73
2021/07/07 01:18:33;;;;;;;7.35;5.00;;;;;;;20.24;56.64;93897.75;5050707;28;20060;-73
2021/07/07 01:20:59;;;;;;;7.53;5.63;;;;;;;20.21;56.71;93906.59;5060449;28;20021;-74
2021/07/07 01:23:24;;;;;;;6.70;4.78;;;;;;;20.16;56.92;93905.03;5054486;28;20548;-73
2021/07/07 01:25:50;;;;;;;7.45;5.18;;;;;;;20.14;56.95;93901.13;5050678;28;20044;-72
2021/07/07 01:28:17;;;;;;;6.70;4.95;;;;;;;20.12;57.32;93906.91;5065231;28;20016;-72
2021/07/07 01:30:42;;;;;;;7.78;5.03;;;;;;;20.10;56.84;93903.81;5066084;28;20021;-72
2021/07/07 01:33:08;;;;;;;8.13;5.47;;;;;;;20.11;56.53;93908.06;5054530;28;20021;-73
2021/07/07 01:35:33;;;;;;;7.53;5.13;;;;;;;20.10;57.03;93900.31;5054040;28;20322;-74
2021/07/07 01:37:59;;;;;;;9.07;4.82;;;;;;;20.07;56.91;93898.34;5049159;28;20033;-73
2021/07/07 01:40:26;;;;;;;10.18;5.50;;;;;;;20.05;57.09;93896.03;5058328;28;20033;-74
2021/07/07 01:42:53;;;;;;;6.72;5.22;;;;;;;20.03;57.36;93903.75;5052590;28;20511;-72
2021/07/07 01:45:21;;;;;;;11.05;6.38;;;;;;;20.02;56.93;93902.19;5061450;28;20043;-72
2021/07/07 01:47:47;;;;;;;13.18;4.97;;;;;;;20.02;56.96;93902.94;5065362;28;20025;-75
2021/07/07 01:50:13;;;;;;;9.90;5.30;;;;;;;19.99;56.74;93908.34;5049019;28;20032;-74
2021/07/07 01:52:40;;;;;;;6.25;4.88;;;;;;;19.96;57.10;93904.44;5057149;28;20616;-75
2021/07/07 01:55:08;;;;;;;7.75;5.40;;;;;;;19.95;57.39;93910.25;5055931;28;20025;-74
2021/07/07 01:57:49;;;;;;;6.82;4.40;;;;;;;19.91;56.46;93912.91;5057396;28;20031;-75
2021/07/07 02:00:29;;;;;;;13.98;4.28;;;;;;;19.89;55.29;93903.59;5068642;28;20055;-75
2021/07/07 02:02:57;;;;;;;6.43;4.57;;;;;;;19.83;55.97;93906.63;5053363;28;20026;-74
2021/07/07 02:05:25;;;;;;;10.40;5.07;;;;;;;19.79;56.14;93908.53;5053763;28;20040;-74
2021/07/07 02:07:51;;;;;;;11.93;5.20;;;;;;;19.77;56.55;93913.53;5056987;28;20056;-74
2021/07/07 02:10:18;;;;;;;7.57;5.20;;;;;;;19.76;56.25;93919.28;5056916;28;20021;-73
2021/07/07 02:12:44;;;;;;;8.23;5.07;;;;;;;19.72;56.54;93921.97;5053339;28;20028;-74
2021/07/07 02:15:25;;;;;;;8.23;5.78;;;;;;;19.70;57.01;93923.44;5064590;28;20035;-74
2021/07/07 02:17:52;;;;;;;7.25;4.72;;;;;;;19.70;57.58;93932.34;5049663;28;20029;-74
2021/07/07 02:20:19;;;;;;;7.65;5.30;;;;;;;19.68;57.21;93936.56;5053968;28;20024;-74
2021/07/07 02:22:46;;;;;;;11.68;5.78;;;;;;;19.65;57.26;93933.44;5068197;28;20480;-74
2021/07/07 02:25:18;;;;;;;7.78;5.07;;;;;;;19.61;57.23;93938.03;5068696;28;20051;-74
2021/07/07 02:27:44;;;;;;;10.55;5.57;;;;;;;19.58;57.53;93943.38;5067941;28;20105;-74
2021/07/07 02:30:13;;;;;;;9.20;5.72;;;;;;;19.56;57.51;93951.88;5070182;28;20036;-74
2021/07/07 02:32:39;;;;;;;10.45;5.22;;;;;;;19.55;57.48;93941.44;5060987;28;20420;-74
2021/07/07 02:35:09;;;;;;;9.88;5.60;;;;;;;19.56;58.06;93951.88;5067487;28;20114;-74
2021/07/07 02:37:35;;;;;;;7.53;5.43;;;;;;;19.53;58.37;93941.03;5060126;28;20037;-74
2021/07/07 02:40:01;;;;;;;8.25;5.30;;;;;;;19.48;58.82;93944.84;5048016;28;20044;-74
2021/07/07 02:42:26;;;;;;;7.45;6.18;;;;;;;19.43;58.74;93950.53;5048270;28;20105;-74
2021/07/07 02:44:52;;;;;;;9.07;6.28;;;;;;;19.42;59.01;93949.78;5052151;28;20447;-74
2021/07/07 02:47:17;;;;;;;8.70;5.97;;;;;;;19.40;59.27;93949.38;5054860;28;20024;-73
2021/07/07 02:49:43;;;;;;;8.80;5.45;;;;;;;19.38;59.53;93957.06;5057181;28;20054;-73
2021/07/07 02:52:08;;;;;;;14.18;5.70;;;;;;;19.35;59.94;93948.91;5063797;28;20492;-74
2021/07/07 02:54:34;;;;;;;15.50;5.75;;;;;;;19.29;59.80;93948.44;5069550;28;20024;-71
2021/07/07 02:56:59;;;;;;;9.13;5.85;;;;;;;19.26;60.08;93946.47;5072110;28;20067;-71
2021/07/07 02:59:24;;;;;;;10.55;5.28;;;;;;;19.25;60.58;93944.91;5063553;28;20017;-71
2021/07/07 03:01:50;;;;;;;8.18;5.55;;;;;;;19.17;59.96;93943.25;5066551;28;20453;-71
2021/07/07 03:04:15;;;;;;;12.45;5.30;;;;;;;19.14;60.29;93944.00;5071923;28;20021;-74
2021/07/07 03:06:41;;;;;;;8.38;5.47;;;;;;;19.11;59.87;93947.41;5071982;28;20491;-73
2021/07/07 03:09:07;;;;;;;8.10;6.00;;;;;;;19.08;59.99;93945.44;5054226;28;20032;-74
2021/07/07 03:11:34;;;;;;;8.10;5.90;;;;;;;19.04;59.97;93948.88;5052078;28;20028;-74
2021/07/07 03:14:00;;;;;;;8.73;5.65;;;;;;;19.01;60.89;93951.50;5068356;28;20115;-74
2021/07/07 03:16:25;;;;;;;13.70;6.63;;;;;;;19.01;61.05;93954.22;5072875;28;20032;-74
2021/07/07 03:18:51;;;;;;;11.65;5.93;;;;;;;18.99;60.41;93951.91;5060004;28;20016;-74
2021/07/07 03:21:16;;;;;;;10.65;5.88;;;;;;;19.00;60.37;93945.34;5059647;28;20418;-75
2021/07/07 03:23:42;;;;;;;9.45;5.95;;;;;;;19.02;61.06;93956.56;5073122;28;20468;-74
2021/07/07 03:26:07;;;;;;;10.13;5.60;;;;;;;19.04;61.03;93958.91;5061890;28;20495;-74
2021/07/07 03:28:33;;;;;;;8.77;5.65;;;;;;;19.05;61.29;93949.66;5052689;28;20103;-74
2021/07/07 03:30:58;;;;;;;7.30;5.15;;;;;;;19.05;61.24;93957.78;5067962;28;20028;-74
2021/07/07 03:33:24;;;;;;;8.70;5.53;;;;;;;19.06;60.94;93962.03;5071222;28;20631;-74
2021/07/07 03:35:49;;;;;;;8.60;5.68;;;;;;;19.09;60.98;93972.09;5072829;28;20494;-74
2021/07/07 03:38:14;;;;;;;7.18;5.25;;;;;;;19.14;60.56;93962.91;5072506;28;20020;-74
2021/07/07 03:40:41;;;;;;;8.18;5.65;;;;;;;19.17;60.12;93968.38;5072620;28;20108;-75
2021/07/07 03:43:07;;;;;;;11.35;5.68;;;;;;;19.23;60.06;93966.91;5072436;28;20036;-74
2021/07/07 03:45:33;;;;;;;10.93;6.22;;;;;;;19.26;60.26;93968.09;5072354;28;20031;-74
2021/07/07 03:47:58;;;;;;;10.32;5.95;;;;;;;19.34;59.95;93964.34;5068612;28;20033;-81
2021/07/07 03:50:25;;;;;;;8.38;5.82;;;;;;;19.38;60.25;93965.16;5065552;28;20100;-79
2021/07/07 03:52:51;;;;;;;11.85;6.75;;;;;;;19.35;60.66;93971.28;5066181;28;20021;-81
2021/07/07 03:55:19;;;;;;;10.20;6.32;;;;;;;19.38;60.93;93973.28;5055700;28;20480;-82
2021/07/07 03:57:45;;;;;;;11.77;6.70;;;;;;;19.36;60.89;93978.28;5060509;28;20404;-82
2021/07/07 04:00:24;;;;;;;16.77;7.93;;;;;;;19.43;60.67;93975.66;5059293;28;20025;-82
2021/07/07 04:02:50;;;;;;;10.98;7.40;;;;;;;19.50;60.80;93974.19;5058796;28;20037;-81
2021/07/07 04:05:16;;;;;;;10.05;7.03;;;;;;;19.56;60.74;93976.22;5071339;28;20066;-81
2021/07/07 04:07:42;;;;;;;11.38;7.28;;;;;;;19.53;60.81;93978.88;5055760;28;20116;-82
2021/07/07 04:10:09;;;;;;;18.67;8.05;;;;;;;19.61;60.62;93984.00;5057148;28;20021;-82
2021/07/07 04:12:36;;;;;;;14.75;7.63;;;;;;;19.63;60.65;93986.34;5053164;28;20021;-80
2021/07/07 04:15:05;;;;;;;12.75;7.95;;;;;;;19.59;60.28;93993.63;5072314;28;20036;-78
2021/07/07 04:17:31;;;;;;;11.02;8.25;;;;;;;19.59;60.18;93988.97;5071642;28;20403;-79
2021/07/07 04:19:56;;;;;;;16.73;7.90;;;;;;;19.64;60.37;93991.38;5051054;28;20028;-79
2021/07/07 04:22:22;;;;;;;15.93;7.85;;;;;;;19.68;60.32;93987.94;5069080;28;20024;-80
2021/07/07 04:24:47;;;;;;;13.70;8.00;;;;;;;19.70;60.37;93994.53;5072077;28;20064;-80
2021/07/07 04:27:12;;;;;;;13.43;8.35;;;;;;;19.73;60.38;93995.75;5061217;28;20466;-80
2021/07/07 04:29:38;;;;;;;13.75;8.27;;;;;;;19.73;60.63;93987.66;5053849;28;20021;-80
2021/07/07 04:32:04;;;;;;;18.38;8.93;;;;;;;19.77;60.12;94000.06;5059856;28;20036;-80
2021/07/07 04:34:29;;;;;;;18.60;8.05;;;;;;;19.80;59.87;93999.34;5054819;28;20040;-79
2021/07/07 04:36:54;;;;;;;14.25;8.82;;;;;;;19.86;61.09;93996.28;5051840;28;20032;-80
2021/07/07 04:39:20;;;;;;;12.27;8.57;;;;;;;19.94;60.48;93998.69;5050487;28;20527;-80
2021/07/07 04:41:45;;;;;;;14.93;9.55;;;;;;;19.95;59.62;94004.91;5059335;28;20045;-80
2021/07/07 04:44:11;;;;;;;16.55;8.88;;;;;;;19.97;59.65;94002.63;5059321;28;20400;-78
2021/07/07 04:46:36;;;;;;;18.95;11.07;;;;;;;20.01;59.35;94001.50;5053305;28;20400;-78
2021/07/07 04:49:02;;;;;;;16.60;9.75;;;;;;;20.00;59.40;94001.88;5051565;28;20044;-78
2021/07/07 04:51:30;;;;;;;18.80;9.63;;;;;;;19.98;59.54;94001.44;5048109;28;20032;-78
2021/07/07 04:53:56;;;;;;;22.73;9.23;;;;;;;20.04;60.07;94003.44;5061382;28;20024;-78
2021/07/07 04:56:21;;;;;;;20.70;10.20;;;;;;;20.09;59.43;93998.88;5070385;28;20033;-78
2021/07/07 04:58:46;;;;;;;19.70;10.25;;;;;;;20.13;59.69;94011.31;5063098;28;20031;-77
2021/07/07 05:01:12;;;;;;;15.55;9.65;;;;;;;20.16;59.86;94013.25;5071329;28;20480;-78
2021/07/07 05:03:37;;;;;;;24.25;10.50;;;;;;;20.26;59.32;94013.75;5071410;28;20099;-78
2021/07/07 05:06:03;;;;;;;16.00;10.05;;;;;;;20.30;58.18;94017.28;5067913;28;20464;-78
2021/07/07 05:08:28;;;;;;;15.70;10.02;;;;;;;20.32;58.47;94017.69;5054062;28;20055;-78
2021/07/07 05:10:54;;;;;;;18.30;10.85;;;;;;;20.35;58.66;94016.94;5065566;28;20120;-78
2021/07/07 05:13:21;;;;;;;18.13;10.43;;;;;;;20.40;58.42;94019.31;5055183;28;20432;-78
2021/07/07 05:15:47;;;;;;;15.40;9.85;;;;;;;20.50;58.37;94012.44;5069846;28;20427;-78
2021/07/07 05:18:14;;;;;;;16.63;10.38;;;;;;;20.63;58.57;94022.66;5051395;28;20443;-78
2021/07/07 05:20:39;;;;;;;21.92;12.02;;;;;;;20.76;58.23;94016.94;5049659;28;20540;-78
2021/07/07 05:23:08;;;;;;;25.85;11.32;;;;;;;20.89;58.18;94015.53;5049544;28;20036;-78
2021/07/07 05:25:39;;;;;;;21.75;10.85;;;;;;;21.01;57.73;94020.66;5051041;28;20083;-78
2021/07/07 05:28:05;;;;;;;26.73;10.93;;;;;;;21.15;56.89;94025.41;5050747;28;20037;-79
2021/07/07 05:30:31;;;;;;;15.82;11.05;;;;;;;21.13;56.38;94019.59;5050977;28;20021;-79
2021/07/07 05:32:59;;;;;;;23.50;11.85;;;;;;;21.02;56.61;94022.22;5049437;28;20032;-79
2021/07/07 05:35:25;;;;;;;17.33;11.00;;;;;;;20.90;57.29;94036.03;5064786;28;20021;-79
2021/07/07 05:37:50;;;;;;;22.35;11.60;;;;;;;21.01;57.06;94030.72;5050887;28;20040;-79
2021/07/07 05:40:17;;;;;;;18.30;11.23;;;;;;;21.11;56.47;94023.84;5065894;28;20403;-79
2021/07/07 05:42:45;;;;;;;21.10;10.00;;;;;;;21.15;56.87;94035.47;5062741;28;20040;-77
2021/07/07 05:45:11;;;;;;;26.75;11.55;;;;;;;21.23;56.50;94034.38;5053148;28;20024;-79
2021/07/07 05:47:36;;;;;;;18.33;11.02;;;;;;;21.30;56.56;94033.66;5052071;28;20102;-79
2021/07/07 05:50:02;;;;;;;18.40;11.13;;;;;;;21.39;55.94;94034.06;5050218;28;20472;-79
2021/07/07 05:52:28;;;;;;;19.05;12.15;;;;;;;21.41;56.12;94026.34;5060900;28;20034;-79
2021/07/07 05:54:55;;;;;;;23.75;11.43;;;;;;;21.44;56.29;94031.81;5050420;28;20021;-79
2021/07/07 05:57:24;;;;;;;19.48;11.48;;;;;;;21.53;56.39;94039.63;5059421;28;20472;-78
2021/07/07 05:59:50;;;;;;;27.83;11.45;;;;;;;21.52;56.25;94040.78;5066900;28;20063;-79
2021/07/07 06:02:15;;;;;;;21.48;11.75;;;;;;;21.66;55.71;94040.09;5050097;28;20072;-77
2021/07/07 06:04:41;;;;;;;20.20;10.65;;;;;;;21.75;55.33;94035.09;5051639;28;20029;-76
2021/07/07 06:07:07;;;;;;;22.98;10.23;;;;;;;21.77;55.88;94032.00;5061276;28;20056;-79
2021/07/07 06:09:32;;;;;;;16.05;10.68;;;;;;;21.86;54.97;94034.38;5067341;28;20059;-79
2021/07/07 06:11:58;;;;;;;17.52;10.68;;;;;;;21.93;54.89;94035.19;5070188;28;20099;-79
2021/07/07 06:14:24;;;;;;;16.17;10.52;;;;;;;22.06;54.59;94035.63;5061029;28;20412;-76
2021/07/07 06:16:50;;;;;;;14.15;10.57;;;;;;;22.11;54.76;94021.69;5053751;28;20468;-76
2021/07/07 06:19:16;;;;;;;19.52;10.70;;;;;;;22.16;54.04;94034.88;5060017;28;20051;-77
2021/07/07 06:21:41;;;;;;;22.33;10.55;;;;;;;22.20;54.17;94032.97;5069646;28;20024;-75
2021/07/07 06:24:07;;;;;;;20.55;10.75;;;;;;;22.30;53.79;94036.13;5062592;28;20031;-75
2021/07/07 06:26:34;;;;;;;13.50;9.52;;;;;;;22.41;54.15;94032.28;5066147;28;20507;-76
2021/07/07 06:28:59;;;;;;;20.90;9.85;;;;;;;22.54;53.69;94046.28;5051147;28;20032;-79
2021/07/07 06:31:25;;;;;;;16.27;8.55;;;;;;;22.71;52.71;94038.56;5051732;28;20415;-76
2021/07/07 06:33:50;;;;;;;20.25;9.00;;;;;;;22.84;52.83;94037.81;5050170;28;20172;-76
2021/07/07 06:36:16;;;;;;;13.02;8.65;;;;;;;22.97;51.59;94040.91;5060058;28;20017;-77
2021/07/07 06:38:41;;;;;;;27.48;9.52;;;;;;;23.05;51.72;94041.72;5058555;28;20032;-77
2021/07/07 06:41:07;;;;;;;26.20;9.20;;;;;;;23.16;51.34;94041.72;5061092;28;20030;-76
2021/07/07 06:43:33;;;;;;;14.32;8.70;;;;;;;23.24;51.00;94040.53;5068784;28;20039;-77
2021/07/07 06:45:58;;;;;;;23.33;8.85;;;;;;;23.36;50.55;94051.03;5063601;28;20056;-77
2021/07/07 06:48:23;;;;;;;13.82;8.65;;;;;;;23.47;50.13;94045.59;5068804;28;20617;-77
2021/07/07 06:50:49;;;;;;;19.42;8.15;;;;;;;23.56;50.42;94054.13;5052811;28;20107;-77
2021/07/07 06:53:15;;;;;;;20.33;7.97;;;;;;;23.62;49.38;94044.38;5060496;28;20051;-74
2021/07/07 06:55:41;;;;;;;19.63;8.88;;;;;;;23.72;49.29;94045.53;5051786;28;20060;-78
2021/07/07 06:58:12;;;;;;;15.60;7.80;;;;;;;23.79;48.04;94042.84;5066310;28;20447;-80
2021/07/07 07:00:37;;;;;;;18.63;8.07;;;;;;;23.89;49.28;94045.91;5060687;28;20017;-76
2021/07/07 07:03:03;;;;;;;14.48;6.85;;;;;;;23.95;48.02;94041.63;5062759;28;20051;-78
2021/07/07 07:05:28;;;;;;;20.15;7.78;;;;;;;24.00;47.52;94044.72;5058577;28;20120;-76
2021/07/07 07:07:54;;;;;;;15.27;7.28;;;;;;;24.09;48.00;94041.56;5049226;28;20025;-77
2021/07/07 07:10:19;;;;;;;16.45;7.25;;;;;;;24.11;47.85;94044.66;5049526;28;20071;-79
2021/07/07 07:12:45;;;;;;;13.27;6.85;;;;;;;24.16;47.10;94041.56;5054862;28;20029;-77
2021/07/07 07:15:13;;;;;;;13.35;6.28;;;;;;;24.20;46.97;94042.31;5061175;28;20021;-77
2021/07/07 07:17:39;;;;;;;9.77;6.50;;;;;;;24.29;47.00;94043.84;5059590;28;20029;-78
2021/07/07 07:20:07;;;;;;;13.68;6.63;;;;;;;24.39;48.93;94043.78;5056551;28;20571;-74
2021/07/07 07:22:33;;;;;;;20.80;6.57;;;;;;;24.47;47.30;94043.75;5057097;28;20111;-77
2021/07/07 07:25:00;;;;;;;21.80;6.80;;;;;;;24.65;46.07;94040.94;5053075;28;20099;-76
2021/07/07 07:27:25;;;;;;;11.52;6.45;;;;;;;24.73;46.05;94043.22;5056237;28;20091;-76
2021/07/07 07:29:51;;;;;;;9.80;7.18;;;;;;;24.88;44.88;94043.91;5065413;28;20021;-79
2021/07/07 07:32:16;;;;;;;12.10;6.25;;;;;;;24.72;45.49;94046.34;5059114;28;20029;-76
2021/07/07 07:34:41;;;;;;;15.82;6.68;;;;;;;24.76;45.94;94047.09;5071923;28;20064;-77
2021/07/07 07:37:09;;;;;;;13.40;6.45;;;;;;;24.77;46.43;94048.63;5073117;28;20020;-77
2021/07/07 07:39:44;;;;;;;11.07;6.60;;;;;;;24.91;46.16;94045.06;5066021;28;20090;-76
2021/07/07 07:42:13;;;;;;;12.77;6.85;;;;;;;25.04;45.94;94046.13;5055593;28;20048;-76
2021/07/07 07:44:38;;;;;;;12.45;6.75;;;;;;;25.13;44.88;94045.69;5062502;28;20025;-77
2021/07/07 07:47:04;;;;;;;18.58;7.80;;;;;;;25.16;44.94;94053.06;5052808;28;20036;-77
2021/07/07 07:49:29;;;;;;;16.73;6.18;;;;;;;25.18;44.08;94053.44;5052818;28;20025;-76
2021/07/07 07:51:55;;;;;;;12.60;6.65;;;;;;;25.28;43.11;94049.09;5057540;28;20037;-75
2021/07/07 07:54:20;;;;;;;19.88;6.35;;;;;;;25.33;42.97;94054.13;5062547;28;20162;-76
2021/07/07 07:56:45;;;;;;;16.70;6.18;;;;;;;25.39;42.56;94066.91;5061075;28;20024;-76
2021/07/07 07:59:11;;;;;;;9.90;6.05;;;;;;;25.39;41.84;94061.47;5065122;28;20381;-75
2021/07/07 08:01:36;;;;;;;9.25;5.15;;;;;;;25.42;41.52;94057.94;5068942;28;20025;-75
2021/07/07 08:04:02;;;;;;;8.45;5.47;;;;;;;25.40;41.91;94056.78;5068301;28;20396;-74
2021/07/07 08:06:28;;;;;;;11.15;4.93;;;;;;;25.46;41.33;94062.56;5068071;28;20036;-75
2021/07/07 08:08:54;;;;;;;9.43;5.50;;;;;;;25.51;41.82;94056.69;5063741;28;20037;-75
2021/07/07 08:11:20;;;;;;;9.15;5.47;;;;;;;25.59;41.51;94066.38;5054171;28;20086;-75
2021/07/07 08:13:46;;;;;;;6.85;5.10;;;;;;;25.70;40.13;94060.78;5056817;28;20115;-74
2021/07/07 08:16:11;;;;;;;16.08;4.97;;;;;;;25.79;39.34;94055.66;5064743;28;20112;-75
2021/07/07 08:18:36;;;;;;;11.90;5.07;;;;;;;25.87;40.07;94059.84;5056652;28;20479;-74
2021/07/07 08:21:03;;;;;;;8.98;5.05;;;;;;;25.91;39.96;94059.81;5065710;28;20038;-74
2021/07/07 08:23:28;;;;;;;11.98;5.38;;;;;;;25.97;39.93;94066.41;5064003;28;20119;-77
2021/07/07 08:25:54;;;;;;;10.75;4.85;;;;;;;26.12;40.16;94064.28;5070887;28;20100;-76
2021/07/07 08:28:19;;;;;;;11.43;5.50;;;;;;;26.30;38.38;94069.56;5072030;28;20478;-77
2021/07/07 08:30:45;;;;;;;10.68;5.03;;;;;;;26.36;38.46;94062.47;5055792;28;20033;-77
2021/07/07 08:33:10;;;;;;;7.35;4.40;;;;;;;26.39;37.76;94067.84;5050421;28;20444;-79
2021/07/07 08:35:38;;;;;;;10.93;4.43;;;;;;;26.48;37.05;94075.56;5058751;28;20116;-81
2021/07/07 08:38:05;;;;;;;10.93;4.55;;;;;;;26.54;37.89;94065.75;5066633;28;20028;-81
2021/07/07 08:40:31;;;;;;;11.20;4.25;;;;;;;26.55;38.33;94067.28;5060331;28;20146;-82
2021/07/07 08:42:56;;;;;;;8.80;4.00;;;;;;;26.60;36.93;94061.38;5058589;28;20076;-80
2021/07/07 08:45:22;;;;;;;11.93;3.85;;;;;;;26.69;36.73;94074.53;5056262;28;20032;-82
2021/07/07 08:47:49;;;;;;;7.50;4.40;;;;;;;26.75;37.06;94067.44;5055764;28;20029;-83
2021/07/07 08:50:33;;;;;;;7.28;4.00;;;;;;;26.87;35.51;94068.84;5065456;28;20034;-79
2021/07/07 08:53:02;;;;;;;9.00;4.28;;;;;;;26.95;36.18;94064.81;5061704;28;20047;-81
2021/07/07 08:55:29;;;;;;;8.07;3.63;;;;;;;27.06;35.94;94072.09;5063012;28;20506;-80
2021/07/07 08:57:56;;;;;;;8.93;4.18;;;;;;;27.12;35.97;94070.44;5062085;28;20557;-84
2021/07/07 09:00:27;;;;;;;5.95;3.53;;;;;;;27.15;34.78;94061.38;5064659;28;20028;-82
2021/07/07 09:02:56;;;;;;;10.25;3.90;;;;;;;27.20;34.59;94069.13;5061313;28;20025;-82
2021/07/07 09:05:23;;;;;;;7.38;3.83;;;;;;;27.28;35.49;94064.34;5059679;28;20024;-83
2021/07/07 09:07:49;;;;;;;7.28;3.90;;;;;;;27.32;35.95;94076.78;5057399;28;20036;-80
2021/07/07 09:10:27;;;;;;;10.98;3.80;;;;;;;27.48;36.09;94069.88;5056301;28;20025;-80
2021/07/07 09:12:52;;;;;;;7.18;3.60;;;;;;;27.63;36.22;94064.94;5057699;28;20021;-79
2021/07/07 09:15:18;;;;;;;9.65;4.75;;;;;;;27.76;35.47;94072.16;5059687;28;20036;-79
2021/07/07 09:17:49;;;;;;;9.20;3.92;;;;;;;27.85;34.24;94066.13;5055804;28;20024;-79
2021/07/07 09:20:40;;;;;;;8.17;3.40;;;;;;;27.95;33.09;94072.63;5067071;28;20033;-80
2021/07/07 09:23:26;;;;;;;8.18;3.60;;;;;;;28.01;32.92;94068.19;5062476;28;20021;-78
2021/07/07 09:26:02;;;;;;;6.45;3.40;;;;;;;28.10;33.16;94067.63;5066402;28;20028;-79
2021/07/07 09:28:34;;;;;;;8.93;4.15;;;;;;;28.12;33.33;94062.50;5063177;28;20107;-79
2021/07/07 09:31:05;;;;;;;;;;;;;;;28.19;32.96;94063.16;5057340;28;20028;-80
2021/07/07 09:33:42;;;;;;;8.88;4.25;;;;;;;28.19;32.07;94065.91;5053744;28;19912;-80
2021/07/07 09:36:22;;;;;;;5.78;4.00;;;;;;;28.20;31.98;94061.19;5049675;28;20032;-78
2021/07/07 09:38:49;;;;;;;7.40;3.67;;;;;;;28.30;33.18;94062.94;5063534;28;20029;-77
2021/07/07 09:41:15;;;;;;;10.63;4.07;;;;;;;28.37;31.86;94062.00;5062827;28;20480;-78
2021/07/07 09:43:50;;;;;;;6.95;3.58;;;;;;;28.36;32.78;94069.47;5060434;28;20038;-78
2021/07/07 09:46:18;;;;;;;7.75;3.95;;;;;;;28.41;33.57;94062.72;5068895;28;20565;-77
2021/07/07 09:48:46;;;;;;;6.32;3.90;;;;;;;28.54;32.80;94073.84;5061133;28;20051;-77
2021/07/07 09:51:11;;;;;;;6.85;3.85;;;;;;;28.46;32.66;94073.19;5059519;28;20028;-77
2021/07/07 09:53:37;;;;;;;10.52;5.22;;;;;;;28.46;32.83;94062.22;5055238;28;20107;-77
2021/07/07 09:56:03;;;;;;;5.88;3.90;;;;;;;28.45;33.87;94057.16;5061205;28;20028;-78
2021/07/07 09:58:29;;;;;;;6.38;3.90;;;;;;;28.53;34.14;94056.63;5061952;28;20058;-78
2021/07/07 10:00:54;;;;;;;9.85;4.20;;;;;;;28.53;32.92;94055.84;5059953;28;20061;-76
2021/07/07 10:03:20;;;;;;;6.35;3.63;;;;;;;28.56;32.51;94061.25;5060508;28;20028;-78
2021/07/07 10:05:47;;;;;;;6.25;3.72;;;;;;;28.67;31.08;94060.25;5062714;28;20038;-78
2021/07/07 10:08:13;;;;;;;7.15;3.85;;;;;;;28.70;30.70;94054.72;5054747;28;20040;-78
2021/07/07 10:10:41;;;;;;;7.65;3.85;;;;;;;28.71;32.40;94064.47;5061100;28;20025;-78
2021/07/07 10:13:07;;;;;;;9.60;4.40;;;;;;;28.86;32.21;94055.91;5055599;28;20644;-78
2021/07/07 10:15:33;;;;;;;6.00;3.72;;;;;;;28.88;31.62;94046.09;5066668;28;20029;-78
2021/07/07 10:17:59;;;;;;;7.22;4.25;;;;;;;28.98;30.78;94042.31;5050986;28;20032;-78
2021/07/07 10:20:24;;;;;;;12.63;4.55;;;;;;;28.99;30.97;94048.59;5049656;28;20048;-78
2021/07/07 10:22:51;;;;;;;9.38;3.97;;;;;;;29.07;32.98;94058.19;5049997;28;20032;-78
2021/07/07 10:25:20;;;;;;;7.45;4.20;;;;;;;29.22;33.00;94053.16;5058308;28;20028;-76
2021/07/07 10:27:46;;;;;;;8.38;3.83;;;;;;;29.25;31.27;94049.56;5070049;28;20533;-77
2021/07/07 10:30:12;;;;;;;7.25;3.95;;;;;;;29.35;32.25;94054.03;5069840;28;20024;-77
2021/07/07 10:32:38;;;;;;;8.48;4.28;;;;;;;29.53;32.28;94053.56;5054795;28;20032;-77
2021/07/07 10:35:10;;;;;;;10.00;4.53;;;;;;;29.67;32.25;94057.16;5070038;28;20031;-77
2021/07/07 10:37:36;;;;;;;10.90;4.28;;;;;;;29.77;31.74;94053.41;5050851;28;20106;-77
2021/07/07 10:40:29;;;;;;;8.38;4.47;;;;;;;29.95;32.04;94061.19;5068738;28;20024;-77
2021/07/07 10:42:55;;;;;;;5.88;4.07;;;;;;;30.07;31.71;94048.72;5047962;28;20049;-77
2021/07/07 10:45:36;;;;;;;11.82;4.80;;;;;;;30.17;31.62;94051.16;5064142;28;20028;-77
2021/07/07 10:48:31;;;;;;;7.55;4.05;;;;;;;30.24;31.18;94060.41;5070087;28;20035;-76
2021/07/07 10:51:00;;;;;;;5.57;4.18;;;;;;;30.27;30.60;94049.31;5067501;28;20024;-79
2021/07/07 10:53:36;;;;;;;12.13;5.07;;;;;;;30.23;29.64;94050.63;5066958;28;20024;-76
2021/07/07 10:56:04;;;;;;;7.30;4.38;;;;;;;30.12;30.12;94048.16;5069832;28;20036;-77
2021/07/07 10:58:36;;;;;;;7.35;4.78;;;;;;;30.03;31.11;94048.81;5064135;28;20036;-75
2021/07/07 11:01:02;;;;;;;;;;;;;;;30.08;32.50;94048.25;5056902;28;20040;-79
2021/07/07 11:03:35;;;;;;;7.57;4.65;;;;;;;30.18;32.13;94040.94;5048827;28;19969;-76
2021/07/07 11:06:24;;;;;;;7.72;4.82;;;;;;;30.35;31.68;94041.69;5052108;28;20407;-79
2021/07/07 11:08:51;;;;;;;12.63;4.30;;;;;;;30.47;31.38;94043.69;5061654;28;20077;-77
2021/07/07 11:11:24;;;;;;;10.23;4.80;;;;;;;30.61;31.91;94050.72;5061708;28;20202;-78
2021/07/07 11:13:51;;;;;;;13.32;4.10;;;;;;;30.78;31.52;94046.69;5069185;28;20101;-79
2021/07/07 11:16:22;;;;;;;14.05;4.53;;;;;;;30.87;30.28;94048.00;5052521;28;20074;-78
2021/07/07 11:18:49;;;;;;;17.90;4.82;;;;;;;30.84;30.01;94038.66;5056472;28;20036;-78
2021/07/07 11:21:15;;;;;;;14.30;3.90;;;;;;;30.84;29.74;94035.91;5064153;28;20047;-79
2021/07/07 11:23:41;;;;;;;11.20;3.85;;;;;;;30.90;30.02;94041.69;5073247;28;20518;-80
2021/07/07 11:26:07;;;;;;;13.60;3.60;;;;;;;30.96;30.81;94032.41;5067912;28;20029;-77
2021/07/07 11:28:34;;;;;;;14.70;5.25;;;;;;;31.04;28.75;94032.19;5060401;28;20040;-81